Waxhaw, NC

11:40 PM EDT on March 30, 2015 (GMT -0400)
Farmbrook | | Change Station
CLOSE
Current Station
Personal Weather Station
Location: Waxhaw, NC
Elevation: 561 ft
Nearby Weather Stations
Active Advisory: Special Statement

Elev 561 ft 34.85 °N, 80.75 °W | Updated 4 minutes ago

Clear
Clear
47.5 °F
Feels Like 48 °F
N
0.0
Wind Variable Wind from SW

Today
High -- | Low -- °F
--% Chance of Precip.
Yesterday
High -- | Low -- °F
Precip. -- in
7:13 AM 7:42 PM
Waxing Gibbous, 84% visible
Pressure 30.07 in
Visibility 10.0 miles
Clouds Clear
Windchill 48 °F
Dew Point 44 °F
Humidity 88%
Rainfall 0.11 in
Snow Depth Not available.
UV 0 out of 12
Pollen 8.80 out of 12
Air Quality Not available.
Flu Activity Not available.
METAR KEQY 310253Z AUTO 31004KT 10SM CLR 13/05 A3004 RMK AO2 SLP182 T01330050 51023

More Conditions Fewer Conditions

Pressure 30.07 in
Visibility 10.0 miles
Clouds Clear
Windchill 48 °F
Dew Point 44 °F
Humidity 88%
Rainfall 0.11 in
Snow Depth Not available.
UV 0 out of 12
Pollen 8.80 out of 12
Air Quality Not available.
Flu Activity Not available.
METAR KEQY 310253Z AUTO 31004KT 10SM CLR 13/05 A3004 RMK AO2 SLP182 T01330050 51023

More Conditions Fewer Conditions

10-Day Weather Forecast

Almanac

Astronomy

Mar. 30, 2015 Rise Set
Actual Time
Civil Twilight
Nautical Twilight
Astronomical Twilight
Moon
Length of Visible Light
Length of Day
Tomorrow will be .
, % of the Moon is Illuminated

Today's Extremes

State Highs State Lows

Community

WunderPhotos

Upload Photos

1,809,713 photos uploaded!

WunderBlogs® & News

Nearby

Air Quality

  Air Quality AQ Index Pollutant
Not available.

Snow Depth

Station Depth Elevation

Earthquake Activity

City Distance Mag. Time & Date
Minimum magnitude displayed is 2.5.

Coastal Water Temperatures

Place Temperature

Stations

Nearby Weather Stations

Station Location Temp. Windchill Dew Point Humidity Wind Precip. Elev Updated Type
                   
Special Statement
Statement as of 3:17 PM EDT on March 30, 2015

... Increased fire danger Tuesday afternoon...

Dry high pressure will be over the region on Tuesday which will
promote temperatures warming into the 60s to around 70 over most
of western North Carolina. In response... relative humidity values
are expected to fall into the lower to mid 20s for several hours.
Fine fuels will be slowly drying and fuel moisture may reach
critical values during the afternoon hours. Winds will be mostly
soutwest and increase to around 10 mph with some gusts to 20 mph
over the higher ridge tops. The combination of dry air and fuels
will heighten fire danger.